createdAt,value
2019-04-05T00:00:08.318Z,14.58
2019-04-05T00:00:43.374Z,14.75
2019-04-05T00:01:16.878Z,14.73
2019-04-05T00:01:50.291Z,14.20
2019-04-05T00:02:23.880Z,14.40
2019-04-05T00:02:57.319Z,14.15
2019-04-05T00:03:30.816Z,12.63
2019-04-05T00:04:04.232Z,13.68
2019-04-05T00:04:37.647Z,14.47
2019-04-05T00:05:11.548Z,13.90
2019-04-05T00:05:44.985Z,13.85
2019-04-05T00:06:18.550Z,13.20
2019-04-05T00:06:51.983Z,13.88
2019-04-05T00:07:25.465Z,13.45
2019-04-05T00:07:59.038Z,14.60
2019-04-05T00:08:32.421Z,14.05
2019-04-05T00:09:06.795Z,14.38
2019-04-05T00:09:40.211Z,13.60
2019-04-05T00:10:13.901Z,14.13
2019-04-05T00:10:47.321Z,13.38
2019-04-05T00:11:20.771Z,14.18
2019-04-05T00:11:54.224Z,13.20
2019-04-05T00:12:27.704Z,13.58
2019-04-05T00:13:01.297Z,14.28
2019-04-05T00:13:34.777Z,13.88
2019-04-05T00:14:08.212Z,13.25
2019-04-05T00:14:41.647Z,13.90
2019-04-05T00:15:16.150Z,14.18
2019-04-05T00:15:49.880Z,14.13
2019-04-05T00:16:23.318Z,12.78
2019-04-05T00:16:56.824Z,13.18
2019-04-05T00:17:30.233Z,13.83
2019-04-05T00:18:03.646Z,13.32
2019-04-05T00:18:37.058Z,14.33
2019-04-05T00:19:10.481Z,13.28
2019-04-05T00:19:43.900Z,13.35
2019-04-05T00:20:17.316Z,14.07
2019-04-05T00:20:50.732Z,13.45
2019-04-05T00:21:24.149Z,13.88
2019-04-05T00:21:57.586Z,13.90
2019-04-05T00:22:31.011Z,13.48
2019-04-05T00:23:04.428Z,13.75
2019-04-05T00:23:38.045Z,14.10
2019-04-05T00:24:11.467Z,13.72
2019-04-05T00:24:44.876Z,12.90
2019-04-05T00:25:18.290Z,14.40
2019-04-05T00:25:51.701Z,12.95
2019-04-05T00:26:25.114Z,13.75
2019-04-05T00:26:58.527Z,14.95
2019-04-05T00:27:31.964Z,14.00
2019-04-05T00:28:05.395Z,14.25
2019-04-05T00:28:38.816Z,12.70
2019-04-05T00:29:12.227Z,15.25
2019-04-05T00:29:45.644Z,13.68
2019-04-05T00:30:19.063Z,12.95
2019-04-05T00:30:52.480Z,12.95
2019-04-05T00:31:25.895Z,13.85
2019-04-05T00:31:59.312Z,13.98
2019-04-05T00:32:32.724Z,13.80
2019-04-05T00:33:06.159Z,13.70
2019-04-05T00:33:39.597Z,13.32
2019-04-05T00:34:13.033Z,13.38
2019-04-05T00:34:46.443Z,13.72
2019-04-05T00:35:19.861Z,14.90
2019-04-05T00:35:53.274Z,13.38
2019-04-05T00:36:26.698Z,13.15
2019-04-05T00:37:00.115Z,14.47
2019-04-05T00:37:33.527Z,13.20
2019-04-05T00:38:06.951Z,14.05
2019-04-05T00:38:40.379Z,14.25
2019-04-05T00:39:13.813Z,13.50
2019-04-05T00:39:47.230Z,13.25
2019-04-05T00:40:20.635Z,13.28
2019-04-05T00:40:54.056Z,12.60
2019-04-05T00:41:27.471Z,14.25
2019-04-05T00:42:00.959Z,13.45
2019-04-05T00:42:34.376Z,13.50
2019-04-05T00:43:07.797Z,13.83
2019-04-05T00:43:41.212Z,14.30
2019-04-05T00:44:14.644Z,14.07
2019-04-05T00:44:48.084Z,13.03
2019-04-05T00:45:28.153Z,14.30
2019-04-05T00:45:56.564Z,13.98
2019-04-05T00:46:29.970Z,14.13
2019-04-05T00:47:03.389Z,13.95
2019-04-05T00:47:36.806Z,14.63
2019-04-05T00:48:10.221Z,14.60
2019-04-05T00:48:43.637Z,13.53
2019-04-05T00:49:17.047Z,14.23
2019-04-05T00:49:50.492Z,14.45
2019-04-05T00:50:23.922Z,14.58
2019-04-05T00:50:57.403Z,13.62
2019-04-05T00:51:30.815Z,13.58
2019-04-05T00:52:04.228Z,14.55
2019-04-05T00:52:37.641Z,14.20
2019-04-05T00:53:11.054Z,14.78
2019-04-05T00:53:44.471Z,12.78
2019-04-05T00:54:17.879Z,13.88
2019-04-05T00:54:51.296Z,13.45
2019-04-05T00:55:24.727Z,14.15
2019-04-05T00:55:58.164Z,14.10
2019-04-05T00:56:31.584Z,14.30
2019-04-05T00:57:05.006Z,14.85
2019-04-05T00:57:38.419Z,13.95
2019-04-05T00:58:11.828Z,13.40
2019-04-05T00:58:45.243Z,14.53
2019-04-05T00:59:18.667Z,14.03
2019-04-05T00:59:52.075Z,14.23
2019-04-05T01:00:25.491Z,13.65
2019-04-05T01:00:58.937Z,12.70
2019-04-05T01:01:32.743Z,13.05
2019-04-05T01:02:06.225Z,13.78
2019-04-05T01:02:39.646Z,13.80
2019-04-05T01:03:13.258Z,12.37
2019-04-05T01:03:46.767Z,13.72
2019-04-05T01:04:20.189Z,14.03
2019-04-05T01:04:53.607Z,13.95
2019-04-05T01:05:27.019Z,14.00
2019-04-05T01:06:00.434Z,13.80
2019-04-05T01:06:33.866Z,14.87
2019-04-05T01:07:07.305Z,13.32
2019-04-05T01:07:40.719Z,14.00
2019-04-05T01:08:14.136Z,13.98
2019-04-05T01:08:47.552Z,13.90
2019-04-05T01:09:20.969Z,14.68
2019-04-05T01:09:54.385Z,13.35
2019-04-05T01:10:27.803Z,14.35
2019-04-05T01:11:01.220Z,13.83
2019-04-05T01:11:34.628Z,14.10
2019-04-05T01:12:08.065Z,13.80
2019-04-05T01:12:41.496Z,13.13
2019-04-05T01:13:14.912Z,13.35
2019-04-05T01:13:48.799Z,12.18
2019-04-05T01:14:22.881Z,13.75
2019-04-05T01:14:56.294Z,13.32
2019-04-05T01:15:40.263Z,12.88
2019-04-05T01:16:04.820Z,13.15
2019-04-05T01:16:38.194Z,14.58
2019-04-05T01:17:24.200Z,13.55
2019-04-05T01:17:46.688Z,13.45
2019-04-05T01:18:20.119Z,13.60
2019-04-05T01:18:53.535Z,12.82
2019-04-05T01:19:28.712Z,13.35
2019-04-05T01:20:03.313Z,13.50
2019-04-05T01:20:36.728Z,13.55
2019-04-05T01:21:10.144Z,14.20
2019-04-05T01:21:46.203Z,13.18
2019-04-05T01:22:19.632Z,13.15
2019-04-05T01:22:53.047Z,13.75
2019-04-05T01:23:26.491Z,12.73
2019-04-05T01:24:00.792Z,12.93
2019-04-05T01:24:34.279Z,13.45
2019-04-05T01:25:07.696Z,14.60
2019-04-05T01:25:41.114Z,14.23
2019-04-05T01:26:14.532Z,13.30
2019-04-05T01:26:47.942Z,13.50
2019-04-05T01:27:22.291Z,13.05
2019-04-05T01:27:55.698Z,14.00
2019-04-05T01:28:29.116Z,13.75
2019-04-05T01:29:02.558Z,13.65
2019-04-05T01:29:35.991Z,13.72
2019-04-05T01:30:12.203Z,14.45
2019-04-05T01:30:45.628Z,13.65
2019-04-05T01:31:19.032Z,13.35
2019-04-05T01:31:52.459Z,13.50
2019-04-05T01:32:25.875Z,13.05
2019-04-05T01:32:59.329Z,13.93
2019-04-05T01:33:32.745Z,13.88
2019-04-05T01:34:06.165Z,13.30
2019-04-05T01:34:39.606Z,12.55
2019-04-05T01:35:13.037Z,12.75
2019-04-05T01:35:46.450Z,13.25
2019-04-05T01:36:19.861Z,13.25
2019-04-05T01:36:53.284Z,12.60
2019-04-05T01:37:26.690Z,13.38
2019-04-05T01:38:00.112Z,13.85
2019-04-05T01:38:33.532Z,12.20
2019-04-05T01:39:06.951Z,12.70
2019-04-05T01:39:40.364Z,12.85
2019-04-05T01:40:13.873Z,13.30
2019-04-05T01:40:47.301Z,14.18
2019-04-05T01:41:20.711Z,12.93
2019-04-05T01:41:54.134Z,12.30
2019-04-05T01:42:27.554Z,12.25
2019-04-05T01:43:00.974Z,13.00
2019-04-05T01:43:34.385Z,13.00
2019-04-05T01:44:07.795Z,13.08
2019-04-05T01:44:41.493Z,12.55
2019-04-05T01:45:14.931Z,12.95
2019-04-05T01:45:53.991Z,13.20
2019-04-05T01:46:23.451Z,13.25
2019-04-05T01:46:56.876Z,13.10
2019-04-05T01:47:30.293Z,13.43
2019-04-05T01:48:03.713Z,12.55
2019-04-05T01:48:37.127Z,13.48
2019-04-05T01:49:10.553Z,12.23
2019-04-05T01:49:43.968Z,12.98
2019-04-05T01:50:17.436Z,13.43
2019-04-05T01:50:50.853Z,12.85
2019-04-05T01:51:24.306Z,12.30
2019-04-05T01:51:57.792Z,12.37
2019-04-05T01:52:31.207Z,13.68
2019-04-05T01:53:04.657Z,13.40
2019-04-05T01:53:38.095Z,13.00
2019-04-05T01:54:11.544Z,12.98
2019-04-05T01:54:44.998Z,13.98
2019-04-05T01:55:18.598Z,12.93
2019-04-05T01:55:52.014Z,13.48
2019-04-05T01:56:25.439Z,12.60
2019-04-05T01:56:58.952Z,13.05
2019-04-05T01:57:32.477Z,13.58
2019-04-05T01:58:06.060Z,13.48
2019-04-05T01:58:39.546Z,14.43
2019-04-05T01:59:12.991Z,12.25
2019-04-05T01:59:46.415Z,13.03
2019-04-05T02:00:20.750Z,12.68
2019-04-05T02:00:54.169Z,12.60
2019-04-05T02:01:27.589Z,12.28
2019-04-05T02:02:01.074Z,12.25
2019-04-05T02:02:34.500Z,13.03
2019-04-05T02:03:07.933Z,12.70
2019-04-05T02:03:41.344Z,12.95
2019-04-05T02:04:14.767Z,13.78
2019-04-05T02:04:48.176Z,13.85
2019-04-05T02:05:21.588Z,13.83
2019-04-05T02:05:55.007Z,12.18
2019-04-05T02:06:28.414Z,12.65
2019-04-05T02:07:01.830Z,12.60
2019-04-05T02:07:35.245Z,12.30
2019-04-05T02:08:08.681Z,12.73
2019-04-05T02:08:42.117Z,13.62
2019-04-05T02:09:15.529Z,13.08
2019-04-05T02:09:49.579Z,11.73
2019-04-05T02:10:22.994Z,11.95
2019-04-05T02:10:56.415Z,12.28
2019-04-05T02:11:29.836Z,12.58
2019-04-05T02:12:03.256Z,13.45
2019-04-05T02:12:36.664Z,11.90
2019-04-05T02:13:10.088Z,12.03
2019-04-05T02:13:43.523Z,13.68
2019-04-05T02:14:16.961Z,12.85
2019-04-05T02:14:50.380Z,12.25
2019-04-05T02:15:30.566Z,12.90
2019-04-05T02:16:06.447Z,12.88
2019-04-05T02:16:39.047Z,13.28
2019-04-05T02:17:12.471Z,12.07
2019-04-05T02:17:45.881Z,12.37
2019-04-05T02:18:19.300Z,13.28
2019-04-05T02:18:52.743Z,13.00
2019-04-05T02:19:26.178Z,13.35
2019-04-05T02:19:59.588Z,13.75
2019-04-05T02:20:33.009Z,12.20
2019-04-05T02:21:06.424Z,13.00
2019-04-05T02:21:39.838Z,12.23
2019-04-05T02:22:13.267Z,13.08
2019-04-05T02:22:46.678Z,12.63
2019-04-05T02:23:20.095Z,13.25
2019-04-05T02:23:53.508Z,13.30
2019-04-05T02:24:26.948Z,11.83
2019-04-05T02:25:00.376Z,12.47
2019-04-05T02:25:33.796Z,13.20
2019-04-05T02:26:07.215Z,13.48
2019-04-05T02:26:40.621Z,13.40
2019-04-05T02:27:14.038Z,12.33
2019-04-05T02:27:47.457Z,13.32
2019-04-05T02:28:20.870Z,13.70
2019-04-05T02:28:54.284Z,11.88
2019-04-05T02:29:27.699Z,12.98
2019-04-05T02:30:01.232Z,13.50
2019-04-05T02:30:34.896Z,13.30
2019-04-05T02:31:08.407Z,12.90
2019-04-05T02:31:41.849Z,13.08
2019-04-05T02:32:15.273Z,12.85
2019-04-05T02:32:48.730Z,12.75
2019-04-05T02:33:22.245Z,12.88
2019-04-05T02:33:55.668Z,13.00
2019-04-05T02:34:29.086Z,12.60
2019-04-05T02:35:02.609Z,12.95
2019-04-05T02:35:39.045Z,12.65
2019-04-05T02:36:11.336Z,12.93
2019-04-05T02:36:44.749Z,12.37
2019-04-05T02:37:18.168Z,13.72
2019-04-05T02:37:51.587Z,12.80
2019-04-05T02:38:25.006Z,14.15
2019-04-05T02:38:58.495Z,13.88
2019-04-05T02:39:31.915Z,12.55
2019-04-05T02:40:11.350Z,12.15
2019-04-05T02:40:44.768Z,12.65
2019-04-05T02:41:18.293Z,14.20
2019-04-05T02:41:51.732Z,11.83
2019-04-05T02:42:25.142Z,12.50
2019-04-05T02:42:59.029Z,12.58
2019-04-05T02:43:32.444Z,13.15
2019-04-05T02:44:05.860Z,12.13
2019-04-05T02:44:39.622Z,11.85
2019-04-05T02:45:13.039Z,12.98
2019-04-05T02:45:46.453Z,13.15
2019-04-05T02:46:23.837Z,13.40
2019-04-05T02:46:54.960Z,13.38
2019-04-05T02:47:28.560Z,12.98
2019-04-05T02:48:03.611Z,12.98
2019-04-05T02:48:37.038Z,13.43
2019-04-05T02:49:10.452Z,13.50
2019-04-05T02:49:43.868Z,13.05
2019-04-05T02:50:17.287Z,12.50
2019-04-05T02:50:54.011Z,12.78
2019-04-05T02:51:27.434Z,11.97
2019-04-05T02:52:01.357Z,12.82
2019-04-05T02:52:35.278Z,12.50
2019-04-05T02:53:08.745Z,13.58
2019-04-05T02:53:42.133Z,13.43
2019-04-05T02:54:15.817Z,14.15
2019-04-05T02:54:49.241Z,12.73
2019-04-05T02:55:22.896Z,12.80
2019-04-05T02:55:56.312Z,12.90
2019-04-05T02:56:29.722Z,12.20
2019-04-05T02:57:03.143Z,12.05
2019-04-05T02:57:36.561Z,12.40
2019-04-05T02:58:11.135Z,12.00
2019-04-05T02:58:44.575Z,13.32
2019-04-05T02:59:18.652Z,12.33
2019-04-05T02:59:52.068Z,12.45
2019-04-05T03:00:25.484Z,12.85
2019-04-05T03:00:58.899Z,13.40
2019-04-05T03:01:32.749Z,12.50
2019-04-05T03:02:06.161Z,13.58
2019-04-05T03:02:39.577Z,12.95
2019-04-05T03:03:12.994Z,12.33
2019-04-05T03:03:46.442Z,11.90
2019-04-05T03:04:19.854Z,13.03
2019-04-05T03:04:53.268Z,13.78
2019-04-05T03:05:26.694Z,12.65
2019-04-05T03:06:00.112Z,13.45
2019-04-05T03:06:33.525Z,12.13
2019-04-05T03:07:07.033Z,12.18
2019-04-05T03:07:40.481Z,13.85
2019-04-05T03:08:13.898Z,13.45
2019-04-05T03:08:47.312Z,13.38
2019-04-05T03:09:20.745Z,13.95
2019-04-05T03:09:54.164Z,13.68
2019-04-05T03:10:49.107Z,13.43
2019-04-05T03:11:22.516Z,13.08
2019-04-05T03:11:55.930Z,13.08
2019-04-05T03:12:29.347Z,13.25
2019-04-05T03:13:02.774Z,13.35
2019-04-05T03:13:36.719Z,12.75
2019-04-05T03:14:10.151Z,13.20
2019-04-05T03:14:43.577Z,13.20
2019-04-05T03:15:17.025Z,12.95
2019-04-05T03:15:50.865Z,12.15
2019-04-05T03:16:39.194Z,13.40
2019-04-05T03:17:01.992Z,12.75
2019-04-05T03:17:35.422Z,12.90
2019-04-05T03:18:08.808Z,12.98
2019-04-05T03:18:45.220Z,13.43
2019-04-05T03:19:20.481Z,12.82
2019-04-05T03:19:53.982Z,13.05
2019-04-05T03:20:27.416Z,13.72
2019-04-05T03:21:04.176Z,13.08
2019-04-05T03:21:38.725Z,13.78
2019-04-05T03:22:12.801Z,12.55
2019-04-05T03:22:46.218Z,13.75
2019-04-05T03:23:19.633Z,14.35
2019-04-05T03:23:53.053Z,12.82
2019-04-05T03:24:28.911Z,12.28
2019-04-05T03:25:02.326Z,12.85
2019-04-05T03:25:35.765Z,13.80
2019-04-05T03:26:11.731Z,12.75
2019-04-05T03:26:48.362Z,13.40
2019-04-05T03:27:24.972Z,12.55
2019-04-05T03:27:58.648Z,13.28
2019-04-05T03:28:32.064Z,13.95
2019-04-05T03:29:08.822Z,12.58
2019-04-05T03:29:42.236Z,12.45
2019-04-05T03:30:15.652Z,13.48
2019-04-05T03:30:49.089Z,13.83
2019-04-05T03:31:25.003Z,13.18
2019-04-05T03:31:57.596Z,12.78
2019-04-05T03:32:31.035Z,13.38
2019-04-05T03:33:04.501Z,12.90
2019-04-05T03:33:37.967Z,13.88
2019-04-05T03:34:11.364Z,13.55
2019-04-05T03:34:44.814Z,12.45
2019-04-05T03:35:18.213Z,13.38
2019-04-05T03:35:51.639Z,13.38
2019-04-05T03:36:25.071Z,13.03
2019-04-05T03:36:58.868Z,13.10
2019-04-05T03:37:32.270Z,13.53
2019-04-05T03:38:05.752Z,13.55
2019-04-05T03:38:39.161Z,13.80
2019-04-05T03:39:12.691Z,13.30
2019-04-05T03:39:46.112Z,13.58
2019-04-05T03:40:19.525Z,13.50
2019-04-05T03:40:52.954Z,13.03
2019-04-05T03:41:26.463Z,12.93
2019-04-05T03:41:59.910Z,12.98
2019-04-05T03:42:33.321Z,13.13
2019-04-05T03:43:06.736Z,12.37
2019-04-05T03:43:40.152Z,13.48
2019-04-05T03:44:13.677Z,13.70
2019-04-05T03:44:47.250Z,12.58
2019-04-05T03:45:20.668Z,12.95
2019-04-05T03:45:54.090Z,12.20
2019-04-05T03:46:27.506Z,14.00
2019-04-05T03:47:00.943Z,12.90
2019-04-05T03:47:34.381Z,13.03
2019-04-05T03:48:07.797Z,13.30
2019-04-05T03:48:41.205Z,13.72
2019-04-05T03:49:14.623Z,13.32
2019-04-05T03:49:48.028Z,13.65
2019-04-05T03:50:21.452Z,13.13
2019-04-05T03:50:54.860Z,12.70
2019-04-05T03:51:28.276Z,13.10
2019-04-05T03:52:01.692Z,13.05
2019-04-05T03:52:35.131Z,12.93
2019-04-05T03:53:08.570Z,13.53
2019-04-05T03:53:41.977Z,14.53
2019-04-05T03:54:15.398Z,13.25
2019-04-05T03:54:48.820Z,12.90
2019-04-05T03:55:22.224Z,14.03
2019-04-05T03:55:55.639Z,12.65
2019-04-05T03:56:29.059Z,12.85
2019-04-05T03:57:02.477Z,12.55
2019-04-05T03:57:35.886Z,13.88
2019-04-05T03:58:09.331Z,12.35
2019-04-05T03:58:42.760Z,13.10
2019-04-05T03:59:16.176Z,13.03
2019-04-05T03:59:49.593Z,12.47
2019-04-05T04:00:23.003Z,14.07
2019-04-05T04:00:56.422Z,13.03
2019-04-05T04:01:29.836Z,12.73
2019-04-05T04:02:03.249Z,14.28
2019-04-05T04:02:36.771Z,11.68
2019-04-05T04:03:10.173Z,13.38
2019-04-05T04:03:43.611Z,12.20
2019-04-05T04:04:17.056Z,13.00
2019-04-05T04:04:50.467Z,13.00
2019-04-05T04:05:23.881Z,13.40
2019-04-05T04:05:57.302Z,12.47
2019-04-05T04:06:30.720Z,13.75
2019-04-05T04:07:04.130Z,14.50
2019-04-05T04:07:37.541Z,13.80
2019-04-05T04:08:11.523Z,13.38
2019-04-05T04:08:44.937Z,13.50
2019-04-05T04:09:18.375Z,13.68
2019-04-05T04:09:51.817Z,12.75
2019-04-05T04:10:25.230Z,13.43
2019-04-05T04:10:58.647Z,13.32
2019-04-05T04:11:32.137Z,12.50
2019-04-05T04:12:05.547Z,14.40
2019-04-05T04:12:38.976Z,13.98
2019-04-05T04:13:12.375Z,13.85
2019-04-05T04:13:45.868Z,13.50
2019-04-05T04:14:19.285Z,13.43
2019-04-05T04:14:52.718Z,14.10
2019-04-05T04:15:26.225Z,14.70
2019-04-05T04:15:59.709Z,13.10
2019-04-05T04:16:33.126Z,13.75
2019-04-05T04:17:12.498Z,13.72
2019-04-05T04:17:43.239Z,14.90
2019-04-05T04:18:16.656Z,13.98
2019-04-05T04:18:50.081Z,13.83
2019-04-05T04:19:23.488Z,14.25
2019-04-05T04:19:56.898Z,15.15
2019-04-05T04:20:45.132Z,13.78
2019-04-05T04:21:24.491Z,12.15
2019-04-05T04:22:20.853Z,12.23
2019-04-05T04:22:54.280Z,14.65
2019-04-05T04:23:29.491Z,13.98
2019-04-05T04:24:02.911Z,13.72
2019-04-05T04:24:36.797Z,13.30
2019-04-05T04:25:10.208Z,14.20
2019-04-05T04:25:43.624Z,13.88
2019-04-05T04:26:17.206Z,13.93
2019-04-05T04:26:50.897Z,14.47
2019-04-05T04:27:24.486Z,14.83
2019-04-05T04:27:57.902Z,15.03
2019-04-05T04:28:31.454Z,14.25
2019-04-05T04:29:04.870Z,14.83
2019-04-05T04:29:38.285Z,14.00
2019-04-05T04:30:11.803Z,14.75
2019-04-05T04:30:45.293Z,14.00
2019-04-05T04:31:18.704Z,13.13
2019-04-05T04:31:52.148Z,14.55
2019-04-05T04:32:25.654Z,14.15
2019-04-05T04:32:59.574Z,14.18
2019-04-05T04:33:33.063Z,14.43
2019-04-05T04:34:06.920Z,13.80
2019-04-05T04:34:40.406Z,14.40
2019-04-05T04:35:13.817Z,13.68
2019-04-05T04:35:47.278Z,13.35
2019-04-05T04:36:21.168Z,14.03
2019-04-05T04:36:54.765Z,13.68
2019-04-05T04:37:28.184Z,12.98
2019-04-05T04:38:01.869Z,13.72
2019-04-05T04:38:35.311Z,13.45
2019-04-05T04:39:08.797Z,15.05
2019-04-05T04:39:42.213Z,14.45
2019-04-05T04:40:15.637Z,13.85
2019-04-05T04:40:49.150Z,14.10
2019-04-05T04:41:22.836Z,14.00
2019-04-05T04:41:56.705Z,14.38
2019-04-05T04:42:30.287Z,13.25
2019-04-05T04:43:03.720Z,13.55
2019-04-05T04:43:37.191Z,13.38
2019-04-05T04:44:10.600Z,14.93
2019-04-05T04:44:44.217Z,13.70
2019-04-05T04:45:17.648Z,13.53
2019-04-05T04:45:51.131Z,13.32
2019-04-05T04:46:24.547Z,13.30
2019-04-05T04:46:57.961Z,13.05
2019-04-05T04:47:31.377Z,13.78
2019-04-05T04:48:04.794Z,14.33
2019-04-05T04:48:38.555Z,14.43
2019-04-05T04:49:12.045Z,13.65
2019-04-05T04:49:45.701Z,14.78
2019-04-05T04:50:19.884Z,14.18
2019-04-05T04:50:53.262Z,14.30
2019-04-05T04:51:26.756Z,13.83
2019-04-05T04:52:00.164Z,13.48
2019-04-05T04:52:33.580Z,13.30
2019-04-05T04:53:07.030Z,13.13
2019-04-05T04:53:40.408Z,14.07
2019-04-05T04:54:13.843Z,12.65
2019-04-05T04:54:47.283Z,13.25
2019-04-05T04:55:20.715Z,13.75
2019-04-05T04:55:54.136Z,11.83
2019-04-05T04:56:27.556Z,12.58
2019-04-05T04:57:01.079Z,13.90
2019-04-05T04:57:34.492Z,12.55
2019-04-05T04:58:07.914Z,12.33
2019-04-05T04:58:41.324Z,13.78
2019-04-05T04:59:14.741Z,13.35
2019-04-05T04:59:48.174Z,12.43
2019-04-05T05:00:21.781Z,13.00
2019-04-05T05:00:55.198Z,13.62
2019-04-05T05:01:28.637Z,12.35
2019-04-05T05:02:02.050Z,12.10
2019-04-05T05:02:35.458Z,12.90
2019-04-05T05:03:08.946Z,12.10
2019-04-05T05:03:42.355Z,11.63
2019-04-05T05:04:15.772Z,11.80
2019-04-05T05:04:49.560Z,12.40
2019-04-05T05:05:23.000Z,12.10
2019-04-05T05:05:56.427Z,12.37
2019-04-05T05:06:31.464Z,12.55
2019-04-05T05:07:04.884Z,12.85
2019-04-05T05:07:38.383Z,12.60
2019-04-05T05:08:11.867Z,12.63
2019-04-05T05:08:45.287Z,12.10
2019-04-05T05:09:18.699Z,11.40
2019-04-05T05:09:52.120Z,11.95
2019-04-05T05:10:25.736Z,12.50
2019-04-05T05:10:59.165Z,12.98
2019-04-05T05:11:32.602Z,12.98
2019-04-05T05:12:06.018Z,13.65
2019-04-05T05:12:39.442Z,12.80
2019-04-05T05:13:12.860Z,12.88
2019-04-05T05:13:46.277Z,13.32
2019-04-05T05:14:19.701Z,12.53
2019-04-05T05:14:53.112Z,12.07
2019-04-05T05:15:27.441Z,13.30
2019-04-05T05:16:01.015Z,13.98
2019-04-05T05:16:34.447Z,12.00
2019-04-05T05:17:07.888Z,12.28
2019-04-05T05:17:41.322Z,12.88
2019-04-05T05:18:14.947Z,13.40
2019-04-05T05:18:48.396Z,13.68
2019-04-05T05:19:21.881Z,13.03
2019-04-05T05:19:55.369Z,11.63
2019-04-05T05:20:28.954Z,12.98
2019-04-05T05:21:02.368Z,12.98
2019-04-05T05:21:35.783Z,13.48
2019-04-05T05:22:09.273Z,12.05
2019-04-05T05:22:42.707Z,12.23
2019-04-05T05:23:16.120Z,13.40
2019-04-05T05:23:49.539Z,13.00
2019-04-05T05:24:22.979Z,12.70
2019-04-05T05:24:56.934Z,12.75
2019-04-05T05:25:30.498Z,12.82
2019-04-05T05:26:03.955Z,12.13
2019-04-05T05:26:39.250Z,13.45
2019-04-05T05:27:12.664Z,11.88
2019-04-05T05:27:46.105Z,12.82
2019-04-05T05:28:19.699Z,12.23
2019-04-05T05:28:53.315Z,13.08
2019-04-05T05:29:26.796Z,12.63
2019-04-05T05:30:00.188Z,11.55
2019-04-05T05:30:33.634Z,12.55
2019-04-05T05:31:07.117Z,12.25
2019-04-05T05:31:40.679Z,11.63
2019-04-05T05:32:14.133Z,13.03
2019-04-05T05:32:47.570Z,11.93
2019-04-05T05:33:21.127Z,13.13
2019-04-05T05:33:54.556Z,13.80
2019-04-05T05:34:28.027Z,12.82
2019-04-05T05:35:02.541Z,12.13
2019-04-05T05:35:36.292Z,12.73
2019-04-05T05:36:10.659Z,12.40
2019-04-05T05:36:44.402Z,12.23
2019-04-05T05:37:18.375Z,12.80
2019-04-05T05:37:51.794Z,11.90
2019-04-05T05:38:25.202Z,13.43
2019-04-05T05:38:58.641Z,13.22
2019-04-05T05:39:32.071Z,12.15
2019-04-05T05:40:08.336Z,11.60
2019-04-05T05:40:41.755Z,12.25
2019-04-05T05:41:15.159Z,12.28
2019-04-05T05:41:48.577Z,12.78
2019-04-05T05:42:21.991Z,13.75
2019-04-05T05:42:55.408Z,13.80
2019-04-05T05:43:28.822Z,12.40
2019-04-05T05:44:02.237Z,12.13
2019-04-05T05:44:35.739Z,13.15
2019-04-05T05:45:09.362Z,11.45
2019-04-05T05:45:42.783Z,12.47
2019-04-05T05:46:16.203Z,12.73
2019-04-05T05:46:49.729Z,11.53
2019-04-05T05:47:23.204Z,13.25
2019-04-05T05:47:56.614Z,13.80
2019-04-05T05:48:30.985Z,12.10
2019-04-05T05:49:04.960Z,11.85
2019-04-05T05:49:38.408Z,12.07
2019-04-05T05:50:11.884Z,11.90
2019-04-05T05:50:45.992Z,13.30
2019-04-05T05:51:19.364Z,13.25
2019-04-05T05:51:52.849Z,12.95
2019-04-05T05:52:26.311Z,13.43
2019-04-05T05:52:59.725Z,13.05
2019-04-05T05:53:33.139Z,11.83
2019-04-05T05:54:06.663Z,12.68
2019-04-05T05:54:40.297Z,11.90
2019-04-05T05:55:13.738Z,12.58
2019-04-05T05:55:47.324Z,12.35
2019-04-05T05:56:20.760Z,13.25
2019-04-05T05:56:54.178Z,11.88
2019-04-05T05:57:27.680Z,13.05
2019-04-05T05:58:01.087Z,12.20
2019-04-05T05:58:34.645Z,13.00
2019-04-05T05:59:08.270Z,12.70
2019-04-05T05:59:41.667Z,12.33
2019-04-05T06:00:16.355Z,12.45
2019-04-05T06:00:49.871Z,12.73
2019-04-05T06:01:23.402Z,12.82
2019-04-05T06:01:56.845Z,13.32
2019-04-05T06:02:30.260Z,12.90
2019-04-05T06:03:06.076Z,12.93
2019-04-05T06:03:39.083Z,12.93
2019-04-05T06:04:12.893Z,13.90
2019-04-05T06:04:46.398Z,13.50
2019-04-05T06:05:19.895Z,13.22
2019-04-05T06:06:03.694Z,13.40
2019-04-05T06:06:28.399Z,12.98
2019-04-05T06:07:01.840Z,14.55
2019-04-05T06:07:35.284Z,13.68
2019-04-05T06:08:08.782Z,14.45
2019-04-05T06:08:42.295Z,14.05
2019-04-05T06:09:15.786Z,13.98
2019-04-05T06:09:49.203Z,14.20
2019-04-05T06:10:22.715Z,14.10
2019-04-05T06:10:56.138Z,13.88
2019-04-05T06:11:29.555Z,16.50
2019-04-05T06:12:02.979Z,15.32
2019-04-05T06:12:36.489Z,17.07
2019-04-05T06:13:09.947Z,15.83
2019-04-05T06:13:43.359Z,14.95
2019-04-05T06:14:16.983Z,15.35
2019-04-05T06:14:50.425Z,15.98
2019-04-05T06:15:23.842Z,16.12
2019-04-05T06:15:57.273Z,16.05
2019-04-05T06:16:30.780Z,16.40
2019-04-05T06:17:04.268Z,16.73
2019-04-05T06:17:37.683Z,16.75
2019-04-05T06:18:12.673Z,16.42
2019-04-05T06:18:48.532Z,16.25
2019-04-05T06:19:21.383Z,15.43
2019-04-05T06:19:54.792Z,15.75
2019-04-05T06:20:28.214Z,16.20
2019-04-05T06:21:03.402Z,15.30
2019-04-05T06:21:36.756Z,15.43
2019-04-05T06:22:10.174Z,15.63
2019-04-05T06:22:43.588Z,14.90
2019-04-05T06:23:17.004Z,15.43
2019-04-05T06:23:50.446Z,14.45
2019-04-05T06:24:24.491Z,13.75
2019-04-05T06:24:57.910Z,14.87
2019-04-05T06:25:31.354Z,14.75
2019-04-05T06:26:04.844Z,13.75
2019-04-05T06:26:38.481Z,14.07
2019-04-05T06:27:12.036Z,13.38
2019-04-05T06:27:45.500Z,14.00
2019-04-05T06:28:18.930Z,14.20
2019-04-05T06:28:52.394Z,13.13
2019-04-05T06:29:26.187Z,13.15
2019-04-05T06:29:59.647Z,13.93
2019-04-05T06:30:33.070Z,13.68
2019-04-05T06:31:06.614Z,12.95
2019-04-05T06:31:40.038Z,13.62
2019-04-05T06:32:13.483Z,13.93
2019-04-05T06:32:47.211Z,13.00
2019-04-05T06:33:30.978Z,13.20
2019-04-05T06:33:55.661Z,14.05
2019-04-05T06:34:29.172Z,13.85
2019-04-05T06:35:02.611Z,14.90
2019-04-05T06:35:36.104Z,14.95
2019-04-05T06:36:09.531Z,15.43
2019-04-05T06:36:42.946Z,15.43
2019-04-05T06:37:16.370Z,14.90
2019-04-05T06:37:49.873Z,14.50
2019-04-05T06:38:23.287Z,15.65
2019-04-05T06:38:56.705Z,14.43
2019-04-05T06:39:30.176Z,14.28
2019-04-05T06:40:07.199Z,14.63
2019-04-05T06:40:41.399Z,16.35
2019-04-05T06:41:15.024Z,15.30
2019-04-05T06:41:48.468Z,13.88
2019-04-05T06:42:21.954Z,13.85
2019-04-05T06:42:55.435Z,13.58
2019-04-05T06:43:28.854Z,15.85
2019-04-05T06:44:02.272Z,15.98
2019-04-05T06:44:35.687Z,17.05
2019-04-05T06:45:09.108Z,15.50
2019-04-05T06:45:42.559Z,14.25
2019-04-05T06:46:15.972Z,15.00
2019-04-05T06:46:49.410Z,14.85
2019-04-05T06:47:22.831Z,14.73
2019-04-05T06:47:56.451Z,13.93
2019-04-05T06:48:29.923Z,13.05
2019-04-05T06:49:03.387Z,14.33
2019-04-05T06:49:36.795Z,13.62
2019-04-05T06:50:10.214Z,14.00
2019-04-05T06:50:43.636Z,15.23
2019-04-05T06:51:17.103Z,15.30
2019-04-05T06:51:50.545Z,15.35
2019-04-05T06:52:24.016Z,15.20
2019-04-05T06:52:57.453Z,14.00
2019-04-05T06:53:30.877Z,15.13
2019-04-05T06:54:04.296Z,14.65
2019-04-05T06:54:37.711Z,15.65
2019-04-05T06:55:11.187Z,14.85
2019-04-05T06:55:44.613Z,13.30
2019-04-05T06:56:18.264Z,14.18
2019-04-05T06:56:51.684Z,15.20
2019-04-05T06:57:25.127Z,14.93
2019-04-05T06:57:58.634Z,14.98
2019-04-05T06:58:32.056Z,14.20
2019-04-05T06:59:05.486Z,13.98
2019-04-05T06:59:38.899Z,13.72
2019-04-05T07:00:13.953Z,14.68
2019-04-05T07:00:56.826Z,13.58
2019-04-05T07:01:22.595Z,15.10
2019-04-05T07:01:56.027Z,14.58
2019-04-05T07:02:29.463Z,14.70
2019-04-05T07:03:02.904Z,13.95
2019-04-05T07:03:36.340Z,15.40
2019-04-05T07:04:09.820Z,14.45
2019-04-05T07:04:43.240Z,14.87
2019-04-05T07:05:16.652Z,13.65
2019-04-05T07:05:50.083Z,14.25
2019-04-05T07:06:23.559Z,14.58
2019-04-05T07:06:56.976Z,15.83
2019-04-05T07:07:30.419Z,13.13
2019-04-05T07:08:03.839Z,14.95
2019-04-05T07:08:37.278Z,15.08
2019-04-05T07:09:10.814Z,14.38
2019-04-05T07:09:44.199Z,13.68
2019-04-05T07:10:17.615Z,14.33
2019-04-05T07:10:51.266Z,14.45
2019-04-05T07:11:24.647Z,14.15
2019-04-05T07:11:58.062Z,14.03
2019-04-05T07:12:31.588Z,15.98
2019-04-05T07:13:05.387Z,16.10
2019-04-05T07:13:38.891Z,15.18